sensor_id;sensor_type;location;lat;lon;timestamp;temperature;humidity
47482;DHT22;33219;47.410;9.730;2023-03-24T00:01:06;11.70;99.90
47482;DHT22;33219;47.410;9.730;2023-03-24T00:03:34;11.70;99.90
47482;DHT22;33219;47.410;9.730;2023-03-24T00:06:04;11.70;99.90
47482;DHT22;33219;47.410;9.730;2023-03-24T00:08:35;11.70;99.90
47482;DHT22;33219;47.410;9.730;2023-03-24T00:11:05;11.60;99.90
47482;DHT22;33219;47.410;9.730;2023-03-24T00:13:34;11.70;99.90
47482;DHT22;33219;47.410;9.730;2023-03-24T00:16:10;11.80;99.90
47482;DHT22;33219;47.410;9.730;2023-03-24T00:18:38;11.80;99.90
47482;DHT22;33219;47.410;9.730;2023-03-24T00:21:07;11.90;99.90
47482;DHT22;33219;47.410;9.730;2023-03-24T00:23:36;11.90;99.90
47482;DHT22;33219;47.410;9.730;2023-03-24T00:26:08;11.80;99.90
47482;DHT22;33219;47.410;9.730;2023-03-24T00:28:38;11.70;99.90
47482;DHT22;33219;47.410;9.730;2023-03-24T00:31:06;11.80;99.90
47482;DHT22;33219;47.410;9.730;2023-03-24T00:33:35;11.80;99.90
47482;DHT22;33219;47.410;9.730;2023-03-24T00:36:07;11.80;99.90
47482;DHT22;33219;47.410;9.730;2023-03-24T00:38:38;11.80;99.90
47482;DHT22;33219;47.410;9.730;2023-03-24T00:41:07;11.70;99.90
47482;DHT22;33219;47.410;9.730;2023-03-24T00:43:36;11.70;99.90
47482;DHT22;33219;47.410;9.730;2023-03-24T00:46:06;11.80;99.90
47482;DHT22;33219;47.410;9.730;2023-03-24T00:48:36;11.90;99.90
47482;DHT22;33219;47.410;9.730;2023-03-24T00:51:06;11.90;99.90
47482;DHT22;33219;47.410;9.730;2023-03-24T00:53:36;12.00;99.90
47482;DHT22;33219;47.410;9.730;2023-03-24T00:56:05;12.00;99.90
47482;DHT22;33219;47.410;9.730;2023-03-24T00:58:34;12.00;99.90
47482;DHT22;33219;47.410;9.730;2023-03-24T01:01:02;12.10;99.90
47482;DHT22;33219;47.410;9.730;2023-03-24T01:03:32;12.20;99.90
47482;DHT22;33219;47.410;9.730;2023-03-24T01:06:01;12.20;99.90
47482;DHT22;33219;47.410;9.730;2023-03-24T01:08:30;12.30;99.90
47482;DHT22;33219;47.410;9.730;2023-03-24T01:10:59;12.20;99.90
47482;DHT22;33219;47.410;9.730;2023-03-24T01:13:28;12.30;99.90
47482;DHT22;33219;47.410;9.730;2023-03-24T01:15:56;12.30;99.90
47482;DHT22;33219;47.410;9.730;2023-03-24T01:18:24;12.30;99.90
47482;DHT22;33219;47.410;9.730;2023-03-24T01:20:53;12.40;99.90
47482;DHT22;33219;47.410;9.730;2023-03-24T01:23:22;12.50;99.90
47482;DHT22;33219;47.410;9.730;2023-03-24T01:25:51;12.50;99.90
47482;DHT22;33219;47.410;9.730;2023-03-24T01:28:21;12.60;99.90
47482;DHT22;33219;47.410;9.730;2023-03-24T01:30:52;12.70;99.90
47482;DHT22;33219;47.410;9.730;2023-03-24T01:33:20;12.70;99.90
47482;DHT22;33219;47.410;9.730;2023-03-24T01:35:48;12.70;99.90
47482;DHT22;33219;47.410;9.730;2023-03-24T01:38:16;12.80;99.90
47482;DHT22;33219;47.410;9.730;2023-03-24T01:40:45;12.90;99.90
47482;DHT22;33219;47.410;9.730;2023-03-24T01:43:21;13.00;99.90
47482;DHT22;33219;47.410;9.730;2023-03-24T01:45:55;13.00;99.90
47482;DHT22;33219;47.410;9.730;2023-03-24T01:48:41;13.00;99.90
47482;DHT22;33219;47.410;9.730;2023-03-24T01:51:11;13.10;99.90
47482;DHT22;33219;47.410;9.730;2023-03-24T01:53:39;13.10;99.90
47482;DHT22;33219;47.410;9.730;2023-03-24T01:56:07;13.00;99.90
47482;DHT22;33219;47.410;9.730;2023-03-24T01:58:39;12.90;99.90
47482;DHT22;33219;47.410;9.730;2023-03-24T02:01:07;12.80;99.90
47482;DHT22;33219;47.410;9.730;2023-03-24T02:03:35;12.60;99.90
47482;DHT22;33219;47.410;9.730;2023-03-24T02:06:05;12.40;99.90
47482;DHT22;33219;47.410;9.730;2023-03-24T02:08:54;12.30;99.90
47482;DHT22;33219;47.410;9.730;2023-03-24T02:11:08;12.20;99.90
47482;DHT22;33219;47.410;9.730;2023-03-24T02:13:35;12.20;99.90
47482;DHT22;33219;47.410;9.730;2023-03-24T02:19:14;12.10;99.90
47482;DHT22;33219;47.410;9.730;2023-03-24T02:24:43;12.00;99.90
47482;DHT22;33219;47.410;9.730;2023-03-24T02:27:38;11.90;99.90
47482;DHT22;33219;47.410;9.730;2023-03-24T02:35:41;11.90;99.90
47482;DHT22;33219;47.410;9.730;2023-03-24T02:41:18;11.90;99.90
47482;DHT22;33219;47.410;9.730;2023-03-24T02:43:57;11.90;99.90
47482;DHT22;33219;47.410;9.730;2023-03-24T02:46:37;11.90;99.90
47482;DHT22;33219;47.410;9.730;2023-03-24T02:49:08;11.90;99.90
47482;DHT22;33219;47.410;9.730;2023-03-24T02:54:28;11.90;99.90
47482;DHT22;33219;47.410;9.730;2023-03-24T02:56:58;11.90;99.90
47482;DHT22;33219;47.410;9.730;2023-03-24T02:59:50;11.90;99.90
47482;DHT22;33219;47.410;9.730;2023-03-24T03:02:29;11.90;99.90
47482;DHT22;33219;47.410;9.730;2023-03-24T03:04:55;11.80;99.90
47482;DHT22;33219;47.410;9.730;2023-03-24T03:07:29;11.90;99.90
47482;DHT22;33219;47.410;9.730;2023-03-24T03:10:17;11.90;99.90
47482;DHT22;33219;47.410;9.730;2023-03-24T03:12:36;11.90;99.90
47482;DHT22;33219;47.410;9.730;2023-03-24T03:15:10;11.90;99.90
47482;DHT22;33219;47.410;9.730;2023-03-24T03:17:51;12.00;99.90
47482;DHT22;33219;47.410;9.730;2023-03-24T03:20:20;12.00;99.90
47482;DHT22;33219;47.410;9.730;2023-03-24T03:22:53;12.00;99.90
47482;DHT22;33219;47.410;9.730;2023-03-24T03:25:22;12.00;99.90
47482;DHT22;33219;47.410;9.730;2023-03-24T03:27:51;11.90;99.90
47482;DHT22;33219;47.410;9.730;2023-03-24T03:30:31;11.90;99.90
47482;DHT22;33219;47.410;9.730;2023-03-24T03:33:03;11.90;99.90
47482;DHT22;33219;47.410;9.730;2023-03-24T03:35:38;11.90;99.90
47482;DHT22;33219;47.410;9.730;2023-03-24T03:38:34;11.90;99.90
47482;DHT22;33219;47.410;9.730;2023-03-24T03:41:03;11.90;99.90
47482;DHT22;33219;47.410;9.730;2023-03-24T03:43:31;11.80;99.90
47482;DHT22;33219;47.410;9.730;2023-03-24T03:46:00;11.80;99.90
47482;DHT22;33219;47.410;9.730;2023-03-24T03:48:28;11.80;99.90
47482;DHT22;33219;47.410;9.730;2023-03-24T03:50:56;11.80;99.90
47482;DHT22;33219;47.410;9.730;2023-03-24T03:53:27;11.70;99.90
47482;DHT22;33219;47.410;9.730;2023-03-24T03:55:54;11.70;99.90
47482;DHT22;33219;47.410;9.730;2023-03-24T03:58:22;11.70;99.90
47482;DHT22;33219;47.410;9.730;2023-03-24T04:00:50;11.60;99.90
47482;DHT22;33219;47.410;9.730;2023-03-24T04:06:01;11.40;99.90
47482;DHT22;33219;47.410;9.730;2023-03-24T04:08:47;11.40;99.90
47482;DHT22;33219;47.410;9.730;2023-03-24T04:14:11;11.50;99.90
47482;DHT22;33219;47.410;9.730;2023-03-24T04:16:52;11.60;99.90
47482;DHT22;33219;47.410;9.730;2023-03-24T04:24:47;12.20;99.90
47482;DHT22;33219;47.410;9.730;2023-03-24T04:27:21;12.50;99.90
47482;DHT22;33219;47.410;9.730;2023-03-24T04:29:53;12.80;99.90
47482;DHT22;33219;47.410;9.730;2023-03-24T04:32:27;13.00;99.90
47482;DHT22;33219;47.410;9.730;2023-03-24T04:35:05;13.20;99.90
47482;DHT22;33219;47.410;9.730;2023-03-24T04:37:30;13.30;99.90
47482;DHT22;33219;47.410;9.730;2023-03-24T04:40:01;13.30;99.90
47482;DHT22;33219;47.410;9.730;2023-03-24T04:42:40;13.30;99.90
47482;DHT22;33219;47.410;9.730;2023-03-24T04:45:08;13.30;99.90
47482;DHT22;33219;47.410;9.730;2023-03-24T04:47:49;13.10;99.90
47482;DHT22;33219;47.410;9.730;2023-03-24T04:50:08;12.90;99.90
47482;DHT22;33219;47.410;9.730;2023-03-24T04:52:38;12.70;99.90
47482;DHT22;33219;47.410;9.730;2023-03-24T04:57:45;12.30;99.90
47482;DHT22;33219;47.410;9.730;2023-03-24T05:00:13;12.10;99.90
47482;DHT22;33219;47.410;9.730;2023-03-24T05:02:42;11.80;99.90
47482;DHT22;33219;47.410;9.730;2023-03-24T05:05:11;11.50;99.90
47482;DHT22;33219;47.410;9.730;2023-03-24T05:07:40;11.40;99.90
47482;DHT22;33219;47.410;9.730;2023-03-24T05:10:08;11.20;99.90
47482;DHT22;33219;47.410;9.730;2023-03-24T05:12:36;11.10;99.90
47482;DHT22;33219;47.410;9.730;2023-03-24T05:15:03;11.00;99.90
47482;DHT22;33219;47.410;9.730;2023-03-24T05:17:32;11.00;99.90
47482;DHT22;33219;47.410;9.730;2023-03-24T05:20:00;11.00;99.90
47482;DHT22;33219;47.410;9.730;2023-03-24T05:22:27;11.00;99.90
47482;DHT22;33219;47.410;9.730;2023-03-24T05:24:55;10.90;99.90
47482;DHT22;33219;47.410;9.730;2023-03-24T05:27:23;11.00;99.90
47482;DHT22;33219;47.410;9.730;2023-03-24T05:29:51;11.00;99.90
47482;DHT22;33219;47.410;9.730;2023-03-24T05:32:18;11.00;99.90
47482;DHT22;33219;47.410;9.730;2023-03-24T05:34:46;11.10;99.90
47482;DHT22;33219;47.410;9.730;2023-03-24T05:37:14;11.10;99.90
47482;DHT22;33219;47.410;9.730;2023-03-24T05:39:43;11.10;99.90
47482;DHT22;33219;47.410;9.730;2023-03-24T05:42:11;11.20;99.90
47482;DHT22;33219;47.410;9.730;2023-03-24T05:44:38;11.20;99.90
47482;DHT22;33219;47.410;9.730;2023-03-24T05:47:06;11.20;99.90
47482;DHT22;33219;47.410;9.730;2023-03-24T05:49:34;11.20;99.90
47482;DHT22;33219;47.410;9.730;2023-03-24T05:52:02;11.30;99.90
47482;DHT22;33219;47.410;9.730;2023-03-24T05:54:30;11.30;99.90
47482;DHT22;33219;47.410;9.730;2023-03-24T05:56:59;11.30;99.90
47482;DHT22;33219;47.410;9.730;2023-03-24T05:59:27;11.30;99.90
47482;DHT22;33219;47.410;9.730;2023-03-24T06:01:56;11.30;99.90
47482;DHT22;33219;47.410;9.730;2023-03-24T06:04:24;11.30;99.90
47482;DHT22;33219;47.410;9.730;2023-03-24T06:06:53;11.30;99.90
47482;DHT22;33219;47.410;9.730;2023-03-24T06:09:21;11.30;99.90
47482;DHT22;33219;47.410;9.730;2023-03-24T06:11:49;11.20;99.90
47482;DHT22;33219;47.410;9.730;2023-03-24T06:14:18;11.30;99.90
47482;DHT22;33219;47.410;9.730;2023-03-24T06:16:46;11.30;99.90
47482;DHT22;33219;47.410;9.730;2023-03-24T06:19:16;11.30;99.90
47482;DHT22;33219;47.410;9.730;2023-03-24T06:21:43;11.30;99.90
47482;DHT22;33219;47.410;9.730;2023-03-24T06:24:13;11.30;99.90
47482;DHT22;33219;47.410;9.730;2023-03-24T06:26:42;11.30;99.90
47482;DHT22;33219;47.410;9.730;2023-03-24T06:29:21;11.40;99.90
47482;DHT22;33219;47.410;9.730;2023-03-24T06:31:54;11.40;99.90
47482;DHT22;33219;47.410;9.730;2023-03-24T06:34:26;11.40;99.90
47482;DHT22;33219;47.410;9.730;2023-03-24T06:36:58;11.50;99.90
47482;DHT22;33219;47.410;9.730;2023-03-24T06:39:28;11.60;99.90
47482;DHT22;33219;47.410;9.730;2023-03-24T06:50:30;12.00;99.90
47482;DHT22;33219;47.410;9.730;2023-03-24T06:53:19;12.20;99.90
47482;DHT22;33219;47.410;9.730;2023-03-24T06:59:30;12.50;99.90
47482;DHT22;33219;47.410;9.730;2023-03-24T07:02:03;12.60;99.90
47482;DHT22;33219;47.410;9.730;2023-03-24T07:12:07;13.00;99.90
47482;DHT22;33219;47.410;9.730;2023-03-24T07:14:38;13.30;99.90
47482;DHT22;33219;47.410;9.730;2023-03-24T07:23:02;14.00;99.90
47482;DHT22;33219;47.410;9.730;2023-03-24T07:25:45;14.20;99.90
47482;DHT22;33219;47.410;9.730;2023-03-24T07:28:21;14.40;99.90
47482;DHT22;33219;47.410;9.730;2023-03-24T07:31:00;14.40;99.90
47482;DHT22;33219;47.410;9.730;2023-03-24T07:36:56;14.80;99.90
47482;DHT22;33219;47.410;9.730;2023-03-24T08:20:37;14.70;99.90
47482;DHT22;33219;47.410;9.730;2023-03-24T08:23:10;14.70;99.90
47482;DHT22;33219;47.410;9.730;2023-03-24T08:25:59;14.70;99.90
47482;DHT22;33219;47.410;9.730;2023-03-24T08:28:45;14.60;99.90
47482;DHT22;33219;47.410;9.730;2023-03-24T08:31:35;14.60;99.90
47482;DHT22;33219;47.410;9.730;2023-03-24T08:34:26;14.50;99.90
47482;DHT22;33219;47.410;9.730;2023-03-24T08:37:03;14.40;99.90
47482;DHT22;33219;47.410;9.730;2023-03-24T08:52:31;14.40;99.90
47482;DHT22;33219;47.410;9.730;2023-03-24T08:54:59;14.30;99.90
47482;DHT22;33219;47.410;9.730;2023-03-24T09:12:35;13.40;99.90
47482;DHT22;33219;47.410;9.730;2023-03-24T09:15:15;13.40;99.90
47482;DHT22;33219;47.410;9.730;2023-03-24T09:17:49;13.40;99.90
47482;DHT22;33219;47.410;9.730;2023-03-24T09:20:28;13.30;99.90
47482;DHT22;33219;47.410;9.730;2023-03-24T09:23:05;13.20;99.90
47482;DHT22;33219;47.410;9.730;2023-03-24T09:28:51;13.20;99.90
47482;DHT22;33219;47.410;9.730;2023-03-24T09:40:50;13.10;99.90
47482;DHT22;33219;47.410;9.730;2023-03-24T09:43:29;13.20;99.90
47482;DHT22;33219;47.410;9.730;2023-03-24T09:46:15;13.30;99.90
47482;DHT22;33219;47.410;9.730;2023-03-24T09:48:55;13.20;99.90
47482;DHT22;33219;47.410;9.730;2023-03-24T09:58:11;13.50;99.90
47482;DHT22;33219;47.410;9.730;2023-03-24T10:03:28;13.60;99.90
47482;DHT22;33219;47.410;9.730;2023-03-24T10:06:26;13.60;99.90
47482;DHT22;33219;47.410;9.730;2023-03-24T10:32:09;15.10;99.90
47482;DHT22;33219;47.410;9.730;2023-03-24T10:34:33;15.30;99.90
47482;DHT22;33219;47.410;9.730;2023-03-24T10:46:15;15.20;99.90
47482;DHT22;33219;47.410;9.730;2023-03-24T10:48:46;15.10;99.90
47482;DHT22;33219;47.410;9.730;2023-03-24T10:51:18;15.00;99.90
47482;DHT22;33219;47.410;9.730;2023-03-24T10:53:51;14.90;99.90
47482;DHT22;33219;47.410;9.730;2023-03-24T10:57:03;14.70;99.90
47482;DHT22;33219;47.410;9.730;2023-03-24T11:04:42;14.40;99.90
47482;DHT22;33219;47.410;9.730;2023-03-24T11:07:18;14.40;99.90
47482;DHT22;33219;47.410;9.730;2023-03-24T11:12:58;14.40;99.90
47482;DHT22;33219;47.410;9.730;2023-03-24T11:15:18;14.30;99.90
47482;DHT22;33219;47.410;9.730;2023-03-24T11:17:55;14.00;99.90
47482;DHT22;33219;47.410;9.730;2023-03-24T11:20:34;13.90;99.90
47482;DHT22;33219;47.410;9.730;2023-03-24T11:23:30;13.80;99.90
47482;DHT22;33219;47.410;9.730;2023-03-24T11:39:24;13.10;99.90
47482;DHT22;33219;47.410;9.730;2023-03-24T11:41:35;13.00;99.90
47482;DHT22;33219;47.410;9.730;2023-03-24T11:46:45;12.80;99.90
47482;DHT22;33219;47.410;9.730;2023-03-24T11:49:15;12.80;99.90
47482;DHT22;33219;47.410;9.730;2023-03-24T11:51:46;12.70;99.90
47482;DHT22;33219;47.410;9.730;2023-03-24T11:54:16;12.70;99.90
47482;DHT22;33219;47.410;9.730;2023-03-24T11:56:47;12.70;99.90
47482;DHT22;33219;47.410;9.730;2023-03-24T12:02:46;12.60;99.90
47482;DHT22;33219;47.410;9.730;2023-03-24T12:05:41;12.60;99.90
47482;DHT22;33219;47.410;9.730;2023-03-24T12:08:21;12.60;99.90
47482;DHT22;33219;47.410;9.730;2023-03-24T12:13:46;12.50;99.90
47482;DHT22;33219;47.410;9.730;2023-03-24T12:21:54;12.50;99.90
47482;DHT22;33219;47.410;9.730;2023-03-24T12:27:11;12.50;99.90
47482;DHT22;33219;47.410;9.730;2023-03-24T12:29:53;12.60;99.90
47482;DHT22;33219;47.410;9.730;2023-03-24T12:32:26;12.60;99.90
47482;DHT22;33219;47.410;9.730;2023-03-24T12:35:21;12.70;99.90
47482;DHT22;33219;47.410;9.730;2023-03-24T12:37:43;12.80;99.90
47482;DHT22;33219;47.410;9.730;2023-03-24T12:43:08;12.80;99.90
47482;DHT22;33219;47.410;9.730;2023-03-24T12:48:54;12.90;99.90
47482;DHT22;33219;47.410;9.730;2023-03-24T12:51:04;12.90;99.90
47482;DHT22;33219;47.410;9.730;2023-03-24T12:53:42;12.80;99.90
47482;DHT22;33219;47.410;9.730;2023-03-24T12:56:17;12.80;99.90
47482;DHT22;33219;47.410;9.730;2023-03-24T12:58:43;12.70;99.90
47482;DHT22;33219;47.410;9.730;2023-03-24T13:01:30;12.70;99.90
47482;DHT22;33219;47.410;9.730;2023-03-24T13:04:04;12.60;99.90
47482;DHT22;33219;47.410;9.730;2023-03-24T13:06:33;12.60;99.90
47482;DHT22;33219;47.410;9.730;2023-03-24T13:09:13;12.60;99.90
47482;DHT22;33219;47.410;9.730;2023-03-24T13:11:56;12.60;99.90
47482;DHT22;33219;47.410;9.730;2023-03-24T13:17:12;12.30;99.90
47482;DHT22;33219;47.410;9.730;2023-03-24T13:19:37;12.20;99.90
47482;DHT22;33219;47.410;9.730;2023-03-24T13:22:10;12.10;99.90
47482;DHT22;33219;47.410;9.730;2023-03-24T13:27:46;12.00;99.90
47482;DHT22;33219;47.410;9.730;2023-03-24T13:30:32;11.80;99.90
47482;DHT22;33219;47.410;9.730;2023-03-24T13:33:19;11.70;99.90
47482;DHT22;33219;47.410;9.730;2023-03-24T13:38:32;11.40;99.90
47482;DHT22;33219;47.410;9.730;2023-03-24T13:41:02;11.20;99.90
47482;DHT22;33219;47.410;9.730;2023-03-24T13:43:30;11.10;99.90
47482;DHT22;33219;47.410;9.730;2023-03-24T13:46:01;11.10;99.90
47482;DHT22;33219;47.410;9.730;2023-03-24T13:48:37;11.00;99.90
47482;DHT22;33219;47.410;9.730;2023-03-24T13:54:16;11.00;99.90
47482;DHT22;33219;47.410;9.730;2023-03-24T13:59:05;10.90;99.90
47482;DHT22;33219;47.410;9.730;2023-03-24T14:01:35;10.90;99.90
47482;DHT22;33219;47.410;9.730;2023-03-24T14:04:21;10.80;99.90
47482;DHT22;33219;47.410;9.730;2023-03-24T14:06:56;10.80;99.90
47482;DHT22;33219;47.410;9.730;2023-03-24T14:09:29;10.80;99.90
47482;DHT22;33219;47.410;9.730;2023-03-24T14:14:36;10.70;99.90
47482;DHT22;33219;47.410;9.730;2023-03-24T14:19:42;10.70;99.90
47482;DHT22;33219;47.410;9.730;2023-03-24T14:22:25;10.60;99.90
47482;DHT22;33219;47.410;9.730;2023-03-24T14:25:03;10.60;99.90
47482;DHT22;33219;47.410;9.730;2023-03-24T14:27:39;10.60;99.90
47482;DHT22;33219;47.410;9.730;2023-03-24T14:33:21;10.60;99.90
47482;DHT22;33219;47.410;9.730;2023-03-24T14:35:45;10.70;99.90
47482;DHT22;33219;47.410;9.730;2023-03-24T14:40:55;10.60;99.90
47482;DHT22;33219;47.410;9.730;2023-03-24T14:43:28;10.70;99.90
47482;DHT22;33219;47.410;9.730;2023-03-24T14:46:01;10.60;99.90
47482;DHT22;33219;47.410;9.730;2023-03-24T14:48:40;10.60;99.90
47482;DHT22;33219;47.410;9.730;2023-03-24T14:53:55;10.60;99.90
47482;DHT22;33219;47.410;9.730;2023-03-24T15:05:56;10.50;99.90
47482;DHT22;33219;47.410;9.730;2023-03-24T15:08:25;10.50;99.90
47482;DHT22;33219;47.410;9.730;2023-03-24T15:13:41;10.50;99.90
47482;DHT22;33219;47.410;9.730;2023-03-24T15:18:45;10.50;99.90
47482;DHT22;33219;47.410;9.730;2023-03-24T15:21:21;10.50;99.90
47482;DHT22;33219;47.410;9.730;2023-03-24T15:23:47;10.40;99.90
47482;DHT22;33219;47.410;9.730;2023-03-24T15:26:17;10.30;99.90
47482;DHT22;33219;47.410;9.730;2023-03-24T15:28:58;10.30;99.90
47482;DHT22;33219;47.410;9.730;2023-03-24T15:31:23;10.30;99.90
47482;DHT22;33219;47.410;9.730;2023-03-24T15:34:03;10.30;99.90
47482;DHT22;33219;47.410;9.730;2023-03-24T15:36:39;10.30;99.90
47482;DHT22;33219;47.410;9.730;2023-03-24T15:39:20;10.40;99.90
47482;DHT22;33219;47.410;9.730;2023-03-24T15:41:50;10.40;99.90
47482;DHT22;33219;47.410;9.730;2023-03-24T15:44:23;10.40;99.90
47482;DHT22;33219;47.410;9.730;2023-03-24T15:46:53;10.40;99.90
47482;DHT22;33219;47.410;9.730;2023-03-24T15:49:34;10.40;99.90
47482;DHT22;33219;47.410;9.730;2023-03-24T15:52:00;10.30;99.90
47482;DHT22;33219;47.410;9.730;2023-03-24T15:54:38;10.30;99.90
47482;DHT22;33219;47.410;9.730;2023-03-24T15:57:27;10.30;99.90
47482;DHT22;33219;47.410;9.730;2023-03-24T16:00:04;10.30;99.90
47482;DHT22;33219;47.410;9.730;2023-03-24T16:02:32;10.30;99.90
47482;DHT22;33219;47.410;9.730;2023-03-24T16:05:01;10.30;99.90
47482;DHT22;33219;47.410;9.730;2023-03-24T16:07:32;10.20;99.90
47482;DHT22;33219;47.410;9.730;2023-03-24T16:10:03;10.30;99.90
47482;DHT22;33219;47.410;9.730;2023-03-24T16:12:36;10.20;99.90
47482;DHT22;33219;47.410;9.730;2023-03-24T16:15:05;10.10;99.90
47482;DHT22;33219;47.410;9.730;2023-03-24T16:17:32;10.10;99.90
47482;DHT22;33219;47.410;9.730;2023-03-24T16:20:00;10.20;99.90
47482;DHT22;33219;47.410;9.730;2023-03-24T16:22:29;10.20;99.90
47482;DHT22;33219;47.410;9.730;2023-03-24T16:24:57;10.20;99.90
47482;DHT22;33219;47.410;9.730;2023-03-24T16:27:24;10.20;99.90
47482;DHT22;33219;47.410;9.730;2023-03-24T16:29:52;10.20;99.90
47482;DHT22;33219;47.410;9.730;2023-03-24T16:32:21;10.10;99.90
47482;DHT22;33219;47.410;9.730;2023-03-24T16:34:49;10.10;99.90
47482;DHT22;33219;47.410;9.730;2023-03-24T16:37:16;10.00;99.90
47482;DHT22;33219;47.410;9.730;2023-03-24T16:39:44;10.00;99.90
47482;DHT22;33219;47.410;9.730;2023-03-24T16:42:12;9.90;99.90
47482;DHT22;33219;47.410;9.730;2023-03-24T16:44:40;9.90;99.90
47482;DHT22;33219;47.410;9.730;2023-03-24T16:47:09;9.90;99.90
47482;DHT22;33219;47.410;9.730;2023-03-24T16:49:37;9.90;99.90
47482;DHT22;33219;47.410;9.730;2023-03-24T16:52:09;9.90;99.90
47482;DHT22;33219;47.410;9.730;2023-03-24T16:54:35;9.90;99.90
47482;DHT22;33219;47.410;9.730;2023-03-24T16:57:02;9.80;99.90
47482;DHT22;33219;47.410;9.730;2023-03-24T16:59:30;9.70;99.90
47482;DHT22;33219;47.410;9.730;2023-03-24T17:01:59;9.70;99.90
47482;DHT22;33219;47.410;9.730;2023-03-24T17:04:31;9.60;99.90
47482;DHT22;33219;47.410;9.730;2023-03-24T17:06:59;9.60;99.90
47482;DHT22;33219;47.410;9.730;2023-03-24T17:09:27;9.60;99.90
47482;DHT22;33219;47.410;9.730;2023-03-24T17:11:57;9.60;99.90
47482;DHT22;33219;47.410;9.730;2023-03-24T17:14:27;9.50;99.90
47482;DHT22;33219;47.410;9.730;2023-03-24T17:16:56;9.50;99.90
47482;DHT22;33219;47.410;9.730;2023-03-24T17:19:25;9.50;99.90
47482;DHT22;33219;47.410;9.730;2023-03-24T17:22:00;9.50;99.90
47482;DHT22;33219;47.410;9.730;2023-03-24T17:24:28;9.50;99.90
47482;DHT22;33219;47.410;9.730;2023-03-24T17:26:58;9.40;99.90
47482;DHT22;33219;47.410;9.730;2023-03-24T17:29:26;9.50;99.90
47482;DHT22;33219;47.410;9.730;2023-03-24T17:31:54;9.50;99.90
47482;DHT22;33219;47.410;9.730;2023-03-24T17:34:22;9.50;99.90
47482;DHT22;33219;47.410;9.730;2023-03-24T17:36:50;9.40;99.90
47482;DHT22;33219;47.410;9.730;2023-03-24T17:39:20;9.40;99.90
47482;DHT22;33219;47.410;9.730;2023-03-24T17:41:49;9.30;99.90
47482;DHT22;33219;47.410;9.730;2023-03-24T17:44:17;9.30;99.90
47482;DHT22;33219;47.410;9.730;2023-03-24T17:46:45;9.30;99.90
47482;DHT22;33219;47.410;9.730;2023-03-24T17:49:13;9.30;99.90
47482;DHT22;33219;47.410;9.730;2023-03-24T17:51:41;9.30;99.90
47482;DHT22;33219;47.410;9.730;2023-03-24T17:54:12;9.30;99.90
47482;DHT22;33219;47.410;9.730;2023-03-24T17:56:41;9.30;99.90
47482;DHT22;33219;47.410;9.730;2023-03-24T17:59:09;9.30;99.90
47482;DHT22;33219;47.410;9.730;2023-03-24T18:01:37;9.30;99.90
47482;DHT22;33219;47.410;9.730;2023-03-24T18:04:05;9.30;99.90
47482;DHT22;33219;47.410;9.730;2023-03-24T18:06:33;9.30;99.90
47482;DHT22;33219;47.410;9.730;2023-03-24T18:09:01;9.30;99.90
47482;DHT22;33219;47.410;9.730;2023-03-24T18:11:29;9.30;99.90
47482;DHT22;33219;47.410;9.730;2023-03-24T18:13:57;9.30;99.90
47482;DHT22;33219;47.410;9.730;2023-03-24T18:16:25;9.30;99.90
47482;DHT22;33219;47.410;9.730;2023-03-24T18:18:55;9.30;99.90
47482;DHT22;33219;47.410;9.730;2023-03-24T18:21:23;9.30;99.90
47482;DHT22;33219;47.410;9.730;2023-03-24T18:23:51;9.30;99.90
47482;DHT22;33219;47.410;9.730;2023-03-24T18:26:18;9.40;99.90
47482;DHT22;33219;47.410;9.730;2023-03-24T18:28:48;9.40;99.90
47482;DHT22;33219;47.410;9.730;2023-03-24T18:37:06;9.50;99.90
47482;DHT22;33219;47.410;9.730;2023-03-24T18:39:35;9.60;99.90
47482;DHT22;33219;47.410;9.730;2023-03-24T18:42:04;9.60;99.90
47482;DHT22;33219;47.410;9.730;2023-03-24T18:44:32;9.70;99.90
47482;DHT22;33219;47.410;9.730;2023-03-24T18:47:03;9.70;99.90
47482;DHT22;33219;47.410;9.730;2023-03-24T18:49:31;9.70;99.90
47482;DHT22;33219;47.410;9.730;2023-03-24T18:51:59;9.80;99.90
47482;DHT22;33219;47.410;9.730;2023-03-24T18:54:27;9.70;99.90
47482;DHT22;33219;47.410;9.730;2023-03-24T18:56:55;9.70;99.90
47482;DHT22;33219;47.410;9.730;2023-03-24T18:59:23;9.80;99.90
47482;DHT22;33219;47.410;9.730;2023-03-24T19:01:53;9.70;99.90
47482;DHT22;33219;47.410;9.730;2023-03-24T19:04:21;9.70;99.90
47482;DHT22;33219;47.410;9.730;2023-03-24T19:06:49;9.70;99.90
47482;DHT22;33219;47.410;9.730;2023-03-24T19:09:17;9.60;99.90
47482;DHT22;33219;47.410;9.730;2023-03-24T19:11:49;9.60;99.90
47482;DHT22;33219;47.410;9.730;2023-03-24T19:14:16;9.60;99.90
47482;DHT22;33219;47.410;9.730;2023-03-24T19:16:44;9.60;99.90
47482;DHT22;33219;47.410;9.730;2023-03-24T19:19:12;9.60;99.90
47482;DHT22;33219;47.410;9.730;2023-03-24T19:21:42;9.60;99.90
47482;DHT22;33219;47.410;9.730;2023-03-24T19:24:11;9.70;99.90
47482;DHT22;33219;47.410;9.730;2023-03-24T19:26:44;9.60;99.90
47482;DHT22;33219;47.410;9.730;2023-03-24T19:29:12;9.60;99.90
47482;DHT22;33219;47.410;9.730;2023-03-24T19:31:40;9.60;99.90
47482;DHT22;33219;47.410;9.730;2023-03-24T19:36:52;9.50;99.90
47482;DHT22;33219;47.410;9.730;2023-03-24T19:39:22;9.50;99.90
47482;DHT22;33219;47.410;9.730;2023-03-24T19:41:52;9.50;99.90
47482;DHT22;33219;47.410;9.730;2023-03-24T19:44:20;9.50;99.90
47482;DHT22;33219;47.410;9.730;2023-03-24T19:46:48;9.50;99.90
47482;DHT22;33219;47.410;9.730;2023-03-24T19:49:16;9.50;99.90
47482;DHT22;33219;47.410;9.730;2023-03-24T19:51:44;9.60;99.90
47482;DHT22;33219;47.410;9.730;2023-03-24T19:54:13;9.60;99.90
47482;DHT22;33219;47.410;9.730;2023-03-24T19:56:41;9.60;99.90
47482;DHT22;33219;47.410;9.730;2023-03-24T19:59:09;9.60;99.90
47482;DHT22;33219;47.410;9.730;2023-03-24T20:01:37;9.50;99.90
47482;DHT22;33219;47.410;9.730;2023-03-24T20:04:05;9.40;99.90
47482;DHT22;33219;47.410;9.730;2023-03-24T20:06:35;9.40;99.90
47482;DHT22;33219;47.410;9.730;2023-03-24T20:09:03;9.30;99.90
47482;DHT22;33219;47.410;9.730;2023-03-24T20:11:31;9.30;99.90
47482;DHT22;33219;47.410;9.730;2023-03-24T20:13:59;9.30;99.90
47482;DHT22;33219;47.410;9.730;2023-03-24T20:16:27;9.20;99.90
47482;DHT22;33219;47.410;9.730;2023-03-24T20:18:55;9.20;99.90
47482;DHT22;33219;47.410;9.730;2023-03-24T20:21:23;9.10;99.90
47482;DHT22;33219;47.410;9.730;2023-03-24T20:23:53;9.10;99.90
47482;DHT22;33219;47.410;9.730;2023-03-24T20:26:21;9.10;99.90
47482;DHT22;33219;47.410;9.730;2023-03-24T20:28:49;9.00;99.90
47482;DHT22;33219;47.410;9.730;2023-03-24T20:31:17;9.00;99.90
47482;DHT22;33219;47.410;9.730;2023-03-24T20:33:45;8.90;99.90
47482;DHT22;33219;47.410;9.730;2023-03-24T20:36:13;8.90;99.90
47482;DHT22;33219;47.410;9.730;2023-03-24T20:38:41;8.80;99.90
47482;DHT22;33219;47.410;9.730;2023-03-24T20:41:11;8.70;99.90